sensor_id;sensor_type;location;lat;lon;timestamp;P1;durP1;ratioP1;P2;durP2;ratioP2
14116;SDS011;7137;51.436;6.544;2023-11-18T00:01:40;34.47;;;22.83;;
14116;SDS011;7137;51.436;6.544;2023-11-18T00:04:42;35.03;;;23.73;;
14116;SDS011;7137;51.436;6.544;2023-11-18T00:07:45;37.23;;;24.47;;
14116;SDS011;7137;51.436;6.544;2023-11-18T00:10:46;38.30;;;26.47;;
14116;SDS011;7137;51.436;6.544;2023-11-18T00:13:48;41.13;;;26.77;;
14116;SDS011;7137;51.436;6.544;2023-11-18T00:16:50;47.00;;;27.93;;
14116;SDS011;7137;51.436;6.544;2023-11-18T00:19:51;47.83;;;29.47;;
14116;SDS011;7137;51.436;6.544;2023-11-18T00:22:55;44.70;;;28.33;;
14116;SDS011;7137;51.436;6.544;2023-11-18T00:25:56;45.37;;;28.63;;
14116;SDS011;7137;51.436;6.544;2023-11-18T00:28:58;41.97;;;27.50;;
14116;SDS011;7137;51.436;6.544;2023-11-18T00:32:00;44.27;;;27.70;;
14116;SDS011;7137;51.436;6.544;2023-11-18T00:35:04;46.53;;;28.10;;
14116;SDS011;7137;51.436;6.544;2023-11-18T00:38:08;44.93;;;27.17;;
14116;SDS011;7137;51.436;6.544;2023-11-18T00:41:10;48.10;;;29.03;;
14116;SDS011;7137;51.436;6.544;2023-11-18T00:44:12;47.77;;;28.93;;
14116;SDS011;7137;51.436;6.544;2023-11-18T00:47:14;50.27;;;29.83;;
14116;SDS011;7137;51.436;6.544;2023-11-18T00:50:16;49.27;;;29.73;;
14116;SDS011;7137;51.436;6.544;2023-11-18T00:53:19;48.37;;;28.87;;
14116;SDS011;7137;51.436;6.544;2023-11-18T00:56:20;45.43;;;28.03;;
14116;SDS011;7137;51.436;6.544;2023-11-18T00:59:22;49.67;;;30.50;;
14116;SDS011;7137;51.436;6.544;2023-11-18T01:02:24;47.27;;;29.37;;
14116;SDS011;7137;51.436;6.544;2023-11-18T01:05:26;50.13;;;29.87;;
14116;SDS011;7137;51.436;6.544;2023-11-18T01:08:29;52.00;;;30.67;;
14116;SDS011;7137;51.436;6.544;2023-11-18T01:11:31;54.40;;;31.07;;
14116;SDS011;7137;51.436;6.544;2023-11-18T01:14:32;50.37;;;30.17;;
14116;SDS011;7137;51.436;6.544;2023-11-18T01:17:34;48.33;;;30.00;;
14116;SDS011;7137;51.436;6.544;2023-11-18T01:20:36;47.37;;;29.37;;
14116;SDS011;7137;51.436;6.544;2023-11-18T01:23:39;46.37;;;28.37;;
14116;SDS011;7137;51.436;6.544;2023-11-18T01:26:42;48.50;;;29.10;;
14116;SDS011;7137;51.436;6.544;2023-11-18T01:29:45;46.17;;;28.97;;
14116;SDS011;7137;51.436;6.544;2023-11-18T01:32:48;45.53;;;28.07;;
14116;SDS011;7137;51.436;6.544;2023-11-18T01:35:50;46.63;;;29.27;;
14116;SDS011;7137;51.436;6.544;2023-11-18T01:38:52;42.20;;;27.67;;
14116;SDS011;7137;51.436;6.544;2023-11-18T01:41:55;41.40;;;27.23;;
14116;SDS011;7137;51.436;6.544;2023-11-18T01:44:59;44.83;;;28.43;;
14116;SDS011;7137;51.436;6.544;2023-11-18T01:48:03;45.67;;;26.87;;
14116;SDS011;7137;51.436;6.544;2023-11-18T01:51:06;42.70;;;27.60;;
14116;SDS011;7137;51.436;6.544;2023-11-18T01:54:11;45.20;;;27.00;;
14116;SDS011;7137;51.436;6.544;2023-11-18T01:57:18;45.07;;;27.33;;
14116;SDS011;7137;51.436;6.544;2023-11-18T02:00:20;44.47;;;27.13;;
14116;SDS011;7137;51.436;6.544;2023-11-18T02:03:23;46.93;;;27.47;;
14116;SDS011;7137;51.436;6.544;2023-11-18T02:06:27;44.37;;;27.00;;
14116;SDS011;7137;51.436;6.544;2023-11-18T02:09:30;42.03;;;26.57;;
14116;SDS011;7137;51.436;6.544;2023-11-18T02:12:33;48.60;;;27.50;;
14116;SDS011;7137;51.436;6.544;2023-11-18T02:15:44;48.30;;;28.00;;
14116;SDS011;7137;51.436;6.544;2023-11-18T02:18:46;51.23;;;28.77;;
14116;SDS011;7137;51.436;6.544;2023-11-18T02:21:49;49.53;;;28.10;;
14116;SDS011;7137;51.436;6.544;2023-11-18T02:24:53;52.03;;;28.30;;
14116;SDS011;7137;51.436;6.544;2023-11-18T02:27:56;50.03;;;28.80;;
14116;SDS011;7137;51.436;6.544;2023-11-18T02:30:59;46.03;;;27.10;;
14116;SDS011;7137;51.436;6.544;2023-11-18T02:34:07;50.33;;;28.03;;
14116;SDS011;7137;51.436;6.544;2023-11-18T02:37:16;53.40;;;28.97;;
14116;SDS011;7137;51.436;6.544;2023-11-18T02:40:19;55.57;;;29.90;;
14116;SDS011;7137;51.436;6.544;2023-11-18T02:43:24;56.70;;;30.00;;
14116;SDS011;7137;51.436;6.544;2023-11-18T02:46:28;52.60;;;29.23;;
14116;SDS011;7137;51.436;6.544;2023-11-18T02:49:31;50.47;;;28.17;;
14116;SDS011;7137;51.436;6.544;2023-11-18T02:52:32;52.07;;;29.43;;
14116;SDS011;7137;51.436;6.544;2023-11-18T02:55:34;51.20;;;28.70;;
14116;SDS011;7137;51.436;6.544;2023-11-18T02:58:37;51.63;;;29.20;;
14116;SDS011;7137;51.436;6.544;2023-11-18T03:01:38;52.23;;;28.53;;
14116;SDS011;7137;51.436;6.544;2023-11-18T03:04:41;51.47;;;29.00;;
14116;SDS011;7137;51.436;6.544;2023-11-18T03:07:44;52.77;;;30.77;;
14116;SDS011;7137;51.436;6.544;2023-11-18T03:10:49;55.37;;;30.57;;
14116;SDS011;7137;51.436;6.544;2023-11-18T03:13:53;54.30;;;29.93;;
14116;SDS011;7137;51.436;6.544;2023-11-18T03:16:55;55.07;;;30.57;;
14116;SDS011;7137;51.436;6.544;2023-11-18T03:19:56;57.63;;;30.57;;
14116;SDS011;7137;51.436;6.544;2023-11-18T03:22:59;54.43;;;30.20;;
14116;SDS011;7137;51.436;6.544;2023-11-18T03:26:02;55.00;;;31.33;;
14116;SDS011;7137;51.436;6.544;2023-11-18T03:29:05;58.27;;;31.57;;
14116;SDS011;7137;51.436;6.544;2023-11-18T03:32:07;58.47;;;31.57;;
14116;SDS011;7137;51.436;6.544;2023-11-18T03:35:08;55.80;;;31.50;;
14116;SDS011;7137;51.436;6.544;2023-11-18T03:38:10;59.40;;;31.20;;
14116;SDS011;7137;51.436;6.544;2023-11-18T03:41:13;57.10;;;31.20;;
14116;SDS011;7137;51.436;6.544;2023-11-18T03:44:15;55.40;;;31.10;;
14116;SDS011;7137;51.436;6.544;2023-11-18T03:47:17;56.80;;;30.80;;
14116;SDS011;7137;51.436;6.544;2023-11-18T03:50:18;55.00;;;30.73;;
14116;SDS011;7137;51.436;6.544;2023-11-18T03:53:20;53.77;;;28.80;;
14116;SDS011;7137;51.436;6.544;2023-11-18T03:56:22;57.23;;;30.57;;
14116;SDS011;7137;51.436;6.544;2023-11-18T03:59:25;51.70;;;29.77;;
14116;SDS011;7137;51.436;6.544;2023-11-18T04:02:26;56.63;;;30.27;;
14116;SDS011;7137;51.436;6.544;2023-11-18T04:05:28;57.77;;;29.73;;
14116;SDS011;7137;51.436;6.544;2023-11-18T04:08:30;53.77;;;29.73;;
14116;SDS011;7137;51.436;6.544;2023-11-18T04:11:34;53.83;;;30.17;;
14116;SDS011;7137;51.436;6.544;2023-11-18T04:14:38;59.83;;;30.80;;
14116;SDS011;7137;51.436;6.544;2023-11-18T04:17:39;64.37;;;31.77;;
14116;SDS011;7137;51.436;6.544;2023-11-18T04:20:41;60.40;;;31.53;;
14116;SDS011;7137;51.436;6.544;2023-11-18T04:23:42;61.00;;;31.43;;
14116;SDS011;7137;51.436;6.544;2023-11-18T04:26:46;66.90;;;31.83;;
14116;SDS011;7137;51.436;6.544;2023-11-18T04:29:50;64.93;;;30.93;;
14116;SDS011;7137;51.436;6.544;2023-11-18T04:32:52;62.70;;;31.77;;
14116;SDS011;7137;51.436;6.544;2023-11-18T04:35:54;66.20;;;31.90;;
14116;SDS011;7137;51.436;6.544;2023-11-18T04:38:57;67.37;;;32.87;;
14116;SDS011;7137;51.436;6.544;2023-11-18T04:41:59;67.33;;;31.50;;
14116;SDS011;7137;51.436;6.544;2023-11-18T04:45:02;70.17;;;33.27;;
14116;SDS011;7137;51.436;6.544;2023-11-18T04:48:05;72.80;;;33.47;;
14116;SDS011;7137;51.436;6.544;2023-11-18T04:51:06;78.30;;;34.70;;
14116;SDS011;7137;51.436;6.544;2023-11-18T04:54:08;76.30;;;35.57;;
14116;SDS011;7137;51.436;6.544;2023-11-18T04:57:10;77.10;;;35.30;;
14116;SDS011;7137;51.436;6.544;2023-11-18T05:00:14;72.77;;;35.13;;
14116;SDS011;7137;51.436;6.544;2023-11-18T05:03:17;81.27;;;36.30;;
14116;SDS011;7137;51.436;6.544;2023-11-18T05:06:19;71.30;;;34.90;;
14116;SDS011;7137;51.436;6.544;2023-11-18T05:09:21;79.07;;;36.43;;
14116;SDS011;7137;51.436;6.544;2023-11-18T05:12:22;74.13;;;36.33;;
14116;SDS011;7137;51.436;6.544;2023-11-18T05:15:25;75.27;;;34.57;;
14116;SDS011;7137;51.436;6.544;2023-11-18T05:18:26;70.93;;;35.43;;
14116;SDS011;7137;51.436;6.544;2023-11-18T05:21:29;66.77;;;34.30;;
14116;SDS011;7137;51.436;6.544;2023-11-18T05:24:31;68.73;;;33.50;;
14116;SDS011;7137;51.436;6.544;2023-11-18T05:27:33;64.87;;;32.57;;
14116;SDS011;7137;51.436;6.544;2023-11-18T05:30:36;62.70;;;32.77;;
14116;SDS011;7137;51.436;6.544;2023-11-18T05:33:39;61.00;;;33.00;;
14116;SDS011;7137;51.436;6.544;2023-11-18T05:36:40;59.57;;;31.70;;
14116;SDS011;7137;51.436;6.544;2023-11-18T05:39:42;57.37;;;30.63;;
14116;SDS011;7137;51.436;6.544;2023-11-18T05:42:47;58.43;;;30.27;;
14116;SDS011;7137;51.436;6.544;2023-11-18T05:45:53;55.90;;;30.60;;
14116;SDS011;7137;51.436;6.544;2023-11-18T05:49:11;62.37;;;32.27;;
14116;SDS011;7137;51.436;6.544;2023-11-18T05:52:13;56.00;;;29.67;;
14116;SDS011;7137;51.436;6.544;2023-11-18T05:55:15;55.03;;;30.30;;
14116;SDS011;7137;51.436;6.544;2023-11-18T05:58:17;49.47;;;29.33;;
14116;SDS011;7137;51.436;6.544;2023-11-18T06:01:20;52.43;;;29.67;;
14116;SDS011;7137;51.436;6.544;2023-11-18T06:04:21;51.73;;;29.03;;
14116;SDS011;7137;51.436;6.544;2023-11-18T06:07:23;52.57;;;27.80;;
14116;SDS011;7137;51.436;6.544;2023-11-18T06:10:24;51.07;;;28.67;;
14116;SDS011;7137;51.436;6.544;2023-11-18T06:13:26;46.90;;;28.43;;
14116;SDS011;7137;51.436;6.544;2023-11-18T06:16:29;49.20;;;27.80;;
14116;SDS011;7137;51.436;6.544;2023-11-18T06:19:30;47.80;;;27.57;;
14116;SDS011;7137;51.436;6.544;2023-11-18T06:22:32;49.97;;;27.47;;
14116;SDS011;7137;51.436;6.544;2023-11-18T06:25:33;45.17;;;27.30;;
14116;SDS011;7137;51.436;6.544;2023-11-18T06:28:35;47.57;;;27.23;;
14116;SDS011;7137;51.436;6.544;2023-11-18T06:31:40;45.03;;;26.57;;
14116;SDS011;7137;51.436;6.544;2023-11-18T06:34:42;47.60;;;27.17;;
14116;SDS011;7137;51.436;6.544;2023-11-18T06:37:44;47.57;;;27.37;;
14116;SDS011;7137;51.436;6.544;2023-11-18T06:40:45;45.40;;;26.53;;
14116;SDS011;7137;51.436;6.544;2023-11-18T06:43:50;46.37;;;25.90;;
14116;SDS011;7137;51.436;6.544;2023-11-18T06:47:10;46.50;;;26.50;;
14116;SDS011;7137;51.436;6.544;2023-11-18T06:50:12;47.13;;;26.50;;
14116;SDS011;7137;51.436;6.544;2023-11-18T06:53:15;47.13;;;27.17;;
14116;SDS011;7137;51.436;6.544;2023-11-18T06:56:17;44.10;;;24.70;;
14116;SDS011;7137;51.436;6.544;2023-11-18T06:59:18;45.47;;;26.13;;
14116;SDS011;7137;51.436;6.544;2023-11-18T07:02:21;49.57;;;27.00;;
14116;SDS011;7137;51.436;6.544;2023-11-18T07:05:23;44.70;;;25.90;;
14116;SDS011;7137;51.436;6.544;2023-11-18T07:08:25;45.53;;;26.07;;
14116;SDS011;7137;51.436;6.544;2023-11-18T07:11:26;43.77;;;24.97;;
14116;SDS011;7137;51.436;6.544;2023-11-18T07:14:28;46.77;;;25.80;;
14116;SDS011;7137;51.436;6.544;2023-11-18T07:17:31;45.57;;;26.80;;
14116;SDS011;7137;51.436;6.544;2023-11-18T07:20:34;45.13;;;26.33;;
14116;SDS011;7137;51.436;6.544;2023-11-18T07:23:36;41.97;;;24.93;;
14116;SDS011;7137;51.436;6.544;2023-11-18T07:26:38;47.33;;;25.90;;
14116;SDS011;7137;51.436;6.544;2023-11-18T07:29:39;43.47;;;26.10;;
14116;SDS011;7137;51.436;6.544;2023-11-18T07:32:43;41.63;;;25.33;;
14116;SDS011;7137;51.436;6.544;2023-11-18T07:35:45;45.53;;;27.40;;
14116;SDS011;7137;51.436;6.544;2023-11-18T07:38:48;41.40;;;25.63;;
14116;SDS011;7137;51.436;6.544;2023-11-18T07:41:50;46.37;;;26.63;;
14116;SDS011;7137;51.436;6.544;2023-11-18T07:44:52;43.47;;;26.17;;
14116;SDS011;7137;51.436;6.544;2023-11-18T07:47:55;42.87;;;25.77;;
14116;SDS011;7137;51.436;6.544;2023-11-18T07:50:56;45.43;;;26.83;;
14116;SDS011;7137;51.436;6.544;2023-11-18T07:53:58;40.73;;;25.30;;
14116;SDS011;7137;51.436;6.544;2023-11-18T07:57:00;44.23;;;25.67;;
14116;SDS011;7137;51.436;6.544;2023-11-18T08:00:01;43.83;;;26.37;;
14116;SDS011;7137;51.436;6.544;2023-11-18T08:03:10;43.43;;;26.27;;
14116;SDS011;7137;51.436;6.544;2023-11-18T08:06:13;41.73;;;25.73;;
14116;SDS011;7137;51.436;6.544;2023-11-18T08:09:14;42.67;;;25.90;;
14116;SDS011;7137;51.436;6.544;2023-11-18T08:12:22;43.20;;;25.27;;
14116;SDS011;7137;51.436;6.544;2023-11-18T08:15:24;42.07;;;25.03;;
14116;SDS011;7137;51.436;6.544;2023-11-18T08:18:28;42.33;;;25.57;;
14116;SDS011;7137;51.436;6.544;2023-11-18T08:21:31;43.50;;;25.67;;
14116;SDS011;7137;51.436;6.544;2023-11-18T08:24:33;42.30;;;25.80;;
14116;SDS011;7137;51.436;6.544;2023-11-18T08:27:37;40.73;;;25.27;;
14116;SDS011;7137;51.436;6.544;2023-11-18T08:30:38;41.43;;;24.43;;
14116;SDS011;7137;51.436;6.544;2023-11-18T08:33:42;42.17;;;25.60;;
14116;SDS011;7137;51.436;6.544;2023-11-18T08:36:46;42.60;;;25.60;;
14116;SDS011;7137;51.436;6.544;2023-11-18T08:39:48;43.50;;;24.77;;
14116;SDS011;7137;51.436;6.544;2023-11-18T08:42:50;39.83;;;24.53;;
14116;SDS011;7137;51.436;6.544;2023-11-18T08:45:53;41.90;;;25.57;;
14116;SDS011;7137;51.436;6.544;2023-11-18T08:48:57;38.73;;;23.17;;
14116;SDS011;7137;51.436;6.544;2023-11-18T08:52:06;37.17;;;23.97;;
14116;SDS011;7137;51.436;6.544;2023-11-18T08:55:10;39.70;;;23.60;;
14116;SDS011;7137;51.436;6.544;2023-11-18T08:58:17;39.53;;;24.17;;
14116;SDS011;7137;51.436;6.544;2023-11-18T09:01:27;40.27;;;24.10;;
14116;SDS011;7137;51.436;6.544;2023-11-18T09:04:30;36.27;;;23.43;;
14116;SDS011;7137;51.436;6.544;2023-11-18T09:07:34;35.53;;;22.67;;
14116;SDS011;7137;51.436;6.544;2023-11-18T09:10:36;33.70;;;22.53;;
14116;SDS011;7137;51.436;6.544;2023-11-18T09:13:38;34.93;;;23.27;;
14116;SDS011;7137;51.436;6.544;2023-11-18T09:16:40;34.30;;;22.37;;
14116;SDS011;7137;51.436;6.544;2023-11-18T09:19:45;34.50;;;20.77;;
14116;SDS011;7137;51.436;6.544;2023-11-18T09:22:47;35.70;;;21.90;;
14116;SDS011;7137;51.436;6.544;2023-11-18T09:25:48;37.70;;;21.97;;
14116;SDS011;7137;51.436;6.544;2023-11-18T09:28:50;30.70;;;21.10;;
14116;SDS011;7137;51.436;6.544;2023-11-18T09:31:52;32.00;;;21.20;;
14116;SDS011;7137;51.436;6.544;2023-11-18T09:34:55;31.47;;;19.70;;
14116;SDS011;7137;51.436;6.544;2023-11-18T09:37:58;31.27;;;19.33;;
14116;SDS011;7137;51.436;6.544;2023-11-18T09:41:03;28.00;;;18.73;;
14116;SDS011;7137;51.436;6.544;2023-11-18T09:44:07;27.57;;;19.83;;
14116;SDS011;7137;51.436;6.544;2023-11-18T09:47:09;28.70;;;19.30;;
14116;SDS011;7137;51.436;6.544;2023-11-18T09:50:17;29.30;;;19.33;;
14116;SDS011;7137;51.436;6.544;2023-11-18T09:53:20;28.67;;;18.97;;
14116;SDS011;7137;51.436;6.544;2023-11-18T09:56:28;30.07;;;18.90;;
14116;SDS011;7137;51.436;6.544;2023-11-18T09:59:39;25.30;;;17.73;;
14116;SDS011;7137;51.436;6.544;2023-11-18T10:02:47;26.23;;;17.63;;
14116;SDS011;7137;51.436;6.544;2023-11-18T10:05:51;23.73;;;16.97;;
14116;SDS011;7137;51.436;6.544;2023-11-18T10:08:55;24.70;;;16.37;;
14116;SDS011;7137;51.436;6.544;2023-11-18T10:11:57;19.87;;;15.87;;
14116;SDS011;7137;51.436;6.544;2023-11-18T10:15:05;21.10;;;16.13;;
14116;SDS011;7137;51.436;6.544;2023-11-18T10:18:11;23.47;;;16.23;;
14116;SDS011;7137;51.436;6.544;2023-11-18T10:21:24;21.73;;;15.10;;
14116;SDS011;7137;51.436;6.544;2023-11-18T10:24:42;21.17;;;14.47;;
14116;SDS011;7137;51.436;6.544;2023-11-18T10:27:45;20.20;;;15.33;;
14116;SDS011;7137;51.436;6.544;2023-11-18T10:30:47;19.40;;;14.10;;
14116;SDS011;7137;51.436;6.544;2023-11-18T10:33:49;17.93;;;13.20;;
14116;SDS011;7137;51.436;6.544;2023-11-18T10:36:59;21.20;;;13.80;;
14116;SDS011;7137;51.436;6.544;2023-11-18T10:40:03;18.40;;;13.30;;
14116;SDS011;7137;51.436;6.544;2023-11-18T10:43:05;18.60;;;13.33;;
14116;SDS011;7137;51.436;6.544;2023-11-18T10:46:10;19.07;;;13.57;;
14116;SDS011;7137;51.436;6.544;2023-11-18T10:49:15;16.27;;;12.87;;
14116;SDS011;7137;51.436;6.544;2023-11-18T10:52:19;18.97;;;13.90;;
14116;SDS011;7137;51.436;6.544;2023-11-18T10:55:20;17.33;;;12.30;;
14116;SDS011;7137;51.436;6.544;2023-11-18T10:58:22;18.30;;;12.70;;
14116;SDS011;7137;51.436;6.544;2023-11-18T11:01:28;16.80;;;12.80;;
14116;SDS011;7137;51.436;6.544;2023-11-18T11:04:33;16.50;;;12.63;;
14116;SDS011;7137;51.436;6.544;2023-11-18T11:07:45;17.83;;;11.83;;
14116;SDS011;7137;51.436;6.544;2023-11-18T11:10:49;17.33;;;11.90;;
14116;SDS011;7137;51.436;6.544;2023-11-18T11:13:53;16.87;;;11.77;;
14116;SDS011;7137;51.436;6.544;2023-11-18T11:16:57;16.50;;;11.57;;
14116;SDS011;7137;51.436;6.544;2023-11-18T11:20:11;16.33;;;10.97;;
14116;SDS011;7137;51.436;6.544;2023-11-18T11:23:29;14.80;;;10.90;;
14116;SDS011;7137;51.436;6.544;2023-11-18T11:26:45;14.77;;;11.73;;
14116;SDS011;7137;51.436;6.544;2023-11-18T11:29:57;14.80;;;10.97;;
14116;SDS011;7137;51.436;6.544;2023-11-18T11:33:12;15.00;;;10.77;;
14116;SDS011;7137;51.436;6.544;2023-11-18T11:36:20;16.03;;;11.53;;
14116;SDS011;7137;51.436;6.544;2023-11-18T11:39:28;17.23;;;11.53;;
14116;SDS011;7137;51.436;6.544;2023-11-18T11:42:36;17.27;;;11.87;;
14116;SDS011;7137;51.436;6.544;2023-11-18T11:45:41;16.00;;;11.20;;
14116;SDS011;7137;51.436;6.544;2023-11-18T11:48:46;13.40;;;10.67;;
14116;SDS011;7137;51.436;6.544;2023-11-18T11:51:49;15.77;;;10.93;;
14116;SDS011;7137;51.436;6.544;2023-11-18T11:54:59;14.57;;;11.00;;
14116;SDS011;7137;51.436;6.544;2023-11-18T11:58:12;16.53;;;11.00;;
14116;SDS011;7137;51.436;6.544;2023-11-18T12:01:32;14.40;;;10.77;;
14116;SDS011;7137;51.436;6.544;2023-11-18T12:04:37;14.60;;;10.33;;
14116;SDS011;7137;51.436;6.544;2023-11-18T12:07:42;15.77;;;10.83;;
14116;SDS011;7137;51.436;6.544;2023-11-18T12:10:53;14.50;;;10.87;;
14116;SDS011;7137;51.436;6.544;2023-11-18T12:14:02;15.17;;;11.03;;
14116;SDS011;7137;51.436;6.544;2023-11-18T12:17:12;16.60;;;10.57;;
14116;SDS011;7137;51.436;6.544;2023-11-18T12:20:39;15.27;;;10.27;;
14116;SDS011;7137;51.436;6.544;2023-11-18T12:30:51;17.13;;;11.40;;
14116;SDS011;7137;51.436;6.544;2023-11-18T12:34:02;18.43;;;12.43;;
14116;SDS011;7137;51.436;6.544;2023-11-18T12:37:27;18.27;;;12.13;;
14116;SDS011;7137;51.436;6.544;2023-11-18T12:40:51;16.73;;;12.23;;
14116;SDS011;7137;51.436;6.544;2023-11-18T12:44:00;19.23;;;12.30;;
14116;SDS011;7137;51.436;6.544;2023-11-18T12:47:18;16.47;;;11.30;;
14116;SDS011;7137;51.436;6.544;2023-11-18T12:50:28;16.67;;;11.27;;
14116;SDS011;7137;51.436;6.544;2023-11-18T12:53:32;15.20;;;10.17;;
14116;SDS011;7137;51.436;6.544;2023-11-18T12:56:36;14.07;;;10.93;;
14116;SDS011;7137;51.436;6.544;2023-11-18T12:59:40;16.07;;;11.20;;
14116;SDS011;7137;51.436;6.544;2023-11-18T13:02:42;15.77;;;11.40;;
14116;SDS011;7137;51.436;6.544;2023-11-18T13:05:44;17.57;;;11.20;;
14116;SDS011;7137;51.436;6.544;2023-11-18T13:08:45;14.33;;;10.90;;
14116;SDS011;7137;51.436;6.544;2023-11-18T13:11:47;13.80;;;10.77;;
14116;SDS011;7137;51.436;6.544;2023-11-18T13:14:50;14.57;;;10.97;;
14116;SDS011;7137;51.436;6.544;2023-11-18T13:17:58;16.27;;;10.03;;
14116;SDS011;7137;51.436;6.544;2023-11-18T13:21:01;13.60;;;10.23;;
14116;SDS011;7137;51.436;6.544;2023-11-18T13:24:04;15.57;;;10.77;;
14116;SDS011;7137;51.436;6.544;2023-11-18T13:27:08;15.77;;;10.67;;
14116;SDS011;7137;51.436;6.544;2023-11-18T13:30:12;14.57;;;10.70;;
14116;SDS011;7137;51.436;6.544;2023-11-18T13:33:14;13.83;;;9.73;;
14116;SDS011;7137;51.436;6.544;2023-11-18T13:36:16;13.43;;;9.47;;
14116;SDS011;7137;51.436;6.544;2023-11-18T13:39:18;17.60;;;9.47;;
14116;SDS011;7137;51.436;6.544;2023-11-18T13:42:21;14.33;;;9.13;;
14116;SDS011;7137;51.436;6.544;2023-11-18T13:45:25;15.90;;;9.27;;
14116;SDS011;7137;51.436;6.544;2023-11-18T13:48:30;13.03;;;9.23;;
14116;SDS011;7137;51.436;6.544;2023-11-18T13:51:34;11.90;;;9.30;;
14116;SDS011;7137;51.436;6.544;2023-11-18T13:54:36;13.10;;;8.37;;
14116;SDS011;7137;51.436;6.544;2023-11-18T13:57:40;12.67;;;8.20;;
14116;SDS011;7137;51.436;6.544;2023-11-18T14:00:43;10.27;;;7.63;;
14116;SDS011;7137;51.436;6.544;2023-11-18T14:03:46;11.70;;;7.30;;
14116;SDS011;7137;51.436;6.544;2023-11-18T14:06:50;11.87;;;7.13;;
14116;SDS011;7137;51.436;6.544;2023-11-18T14:09:52;11.83;;;6.27;;
14116;SDS011;7137;51.436;6.544;2023-11-18T14:13:03;8.27;;;6.30;;
14116;SDS011;7137;51.436;6.544;2023-11-18T14:16:08;11.60;;;6.50;;
14116;SDS011;7137;51.436;6.544;2023-11-18T14:19:10;9.63;;;6.43;;
14116;SDS011;7137;51.436;6.544;2023-11-18T14:22:13;10.47;;;5.90;;
14116;SDS011;7137;51.436;6.544;2023-11-18T14:25:14;9.80;;;6.07;;
14116;SDS011;7137;51.436;6.544;2023-11-18T14:28:17;12.23;;;6.73;;
14116;SDS011;7137;51.436;6.544;2023-11-18T14:31:20;9.37;;;5.97;;
14116;SDS011;7137;51.436;6.544;2023-11-18T14:34:23;8.93;;;6.50;;
14116;SDS011;7137;51.436;6.544;2023-11-18T14:37:25;8.43;;;6.00;;
14116;SDS011;7137;51.436;6.544;2023-11-18T14:40:27;10.07;;;5.90;;
14116;SDS011;7137;51.436;6.544;2023-11-18T14:43:29;10.00;;;6.17;;
14116;SDS011;7137;51.436;6.544;2023-11-18T14:46:31;12.43;;;6.80;;
14116;SDS011;7137;51.436;6.544;2023-11-18T14:49:33;11.57;;;6.33;;
14116;SDS011;7137;51.436;6.544;2023-11-18T14:52:35;8.60;;;6.03;;
14116;SDS011;7137;51.436;6.544;2023-11-18T14:55:37;9.70;;;5.60;;
14116;SDS011;7137;51.436;6.544;2023-11-18T14:58:39;10.27;;;6.23;;
14116;SDS011;7137;51.436;6.544;2023-11-18T15:01:42;10.77;;;6.50;;
14116;SDS011;7137;51.436;6.544;2023-11-18T15:04:44;8.97;;;6.17;;
14116;SDS011;7137;51.436;6.544;2023-11-18T15:07:45;10.20;;;6.30;;
14116;SDS011;7137;51.436;6.544;2023-11-18T15:10:47;9.90;;;5.80;;
14116;SDS011;7137;51.436;6.544;2023-11-18T15:13:51;8.57;;;6.37;;
14116;SDS011;7137;51.436;6.544;2023-11-18T15:16:55;9.50;;;5.90;;
14116;SDS011;7137;51.436;6.544;2023-11-18T15:19:56;9.37;;;5.80;;
14116;SDS011;7137;51.436;6.544;2023-11-18T15:22:58;10.70;;;6.30;;
14116;SDS011;7137;51.436;6.544;2023-11-18T15:26:00;14.20;;;6.90;;
14116;SDS011;7137;51.436;6.544;2023-11-18T15:29:02;8.97;;;5.93;;
14116;SDS011;7137;51.436;6.544;2023-11-18T15:32:13;9.97;;;6.30;;
14116;SDS011;7137;51.436;6.544;2023-11-18T15:35:16;9.53;;;6.80;;
14116;SDS011;7137;51.436;6.544;2023-11-18T15:38:18;8.53;;;6.53;;
14116;SDS011;7137;51.436;6.544;2023-11-18T15:41:20;10.33;;;6.83;;
14116;SDS011;7137;51.436;6.544;2023-11-18T15:44:22;9.87;;;6.70;;
14116;SDS011;7137;51.436;6.544;2023-11-18T15:47:25;9.13;;;6.77;;
14116;SDS011;7137;51.436;6.544;2023-11-18T15:50:27;8.50;;;6.60;;
14116;SDS011;7137;51.436;6.544;2023-11-18T15:53:29;11.80;;;6.13;;
14116;SDS011;7137;51.436;6.544;2023-11-18T15:56:31;8.13;;;5.37;;
14116;SDS011;7137;51.436;6.544;2023-11-18T15:59:34;8.77;;;5.97;;
14116;SDS011;7137;51.436;6.544;2023-11-18T16:02:37;10.17;;;6.00;;
14116;SDS011;7137;51.436;6.544;2023-11-18T16:05:40;9.93;;;6.17;;
14116;SDS011;7137;51.436;6.544;2023-11-18T16:08:42;8.30;;;5.77;;
14116;SDS011;7137;51.436;6.544;2023-11-18T16:11:46;8.83;;;5.70;;
14116;SDS011;7137;51.436;6.544;2023-11-18T16:14:49;8.53;;;5.80;;
14116;SDS011;7137;51.436;6.544;2023-11-18T16:17:52;8.03;;;5.03;;
14116;SDS011;7137;51.436;6.544;2023-11-18T16:20:54;8.87;;;5.27;;
14116;SDS011;7137;51.436;6.544;2023-11-18T16:23:57;8.03;;;5.10;;
14116;SDS011;7137;51.436;6.544;2023-11-18T16:26:59;7.93;;;5.60;;
14116;SDS011;7137;51.436;6.544;2023-11-18T16:30:01;8.40;;;5.43;;
14116;SDS011;7137;51.436;6.544;2023-11-18T16:33:04;7.67;;;5.40;;
14116;SDS011;7137;51.436;6.544;2023-11-18T16:36:06;8.27;;;5.30;;
14116;SDS011;7137;51.436;6.544;2023-11-18T16:39:08;7.73;;;4.70;;
14116;SDS011;7137;51.436;6.544;2023-11-18T16:42:09;8.87;;;5.80;;
14116;SDS011;7137;51.436;6.544;2023-11-18T16:45:11;9.23;;;6.27;;
14116;SDS011;7137;51.436;6.544;2023-11-18T16:48:15;8.83;;;5.97;;
14116;SDS011;7137;51.436;6.544;2023-11-18T16:51:16;8.50;;;5.37;;
14116;SDS011;7137;51.436;6.544;2023-11-18T16:54:18;8.60;;;6.23;;
14116;SDS011;7137;51.436;6.544;2023-11-18T16:57:20;8.80;;;6.53;;
14116;SDS011;7137;51.436;6.544;2023-11-18T17:00:23;9.17;;;6.87;;
14116;SDS011;7137;51.436;6.544;2023-11-18T17:03:26;8.87;;;6.60;;
14116;SDS011;7137;51.436;6.544;2023-11-18T17:06:30;8.73;;;5.40;;
14116;SDS011;7137;51.436;6.544;2023-11-18T17:09:32;8.53;;;6.23;;
14116;SDS011;7137;51.436;6.544;2023-11-18T17:12:34;8.20;;;6.30;;
14116;SDS011;7137;51.436;6.544;2023-11-18T17:15:36;9.33;;;6.57;;
14116;SDS011;7137;51.436;6.544;2023-11-18T17:18:39;8.57;;;6.33;;
14116;SDS011;7137;51.436;6.544;2023-11-18T17:21:41;8.70;;;6.70;;
14116;SDS011;7137;51.436;6.544;2023-11-18T17:24:42;10.63;;;8.63;;
14116;SDS011;7137;51.436;6.544;2023-11-18T17:27:44;9.00;;;6.97;;
14116;SDS011;7137;51.436;6.544;2023-11-18T17:30:47;8.93;;;6.90;;
14116;SDS011;7137;51.436;6.544;2023-11-18T17:33:50;8.37;;;6.73;;
14116;SDS011;7137;51.436;6.544;2023-11-18T17:36:51;8.90;;;6.63;;
14116;SDS011;7137;51.436;6.544;2023-11-18T17:39:53;8.43;;;6.77;;
14116;SDS011;7137;51.436;6.544;2023-11-18T17:42:54;7.53;;;6.07;;
14116;SDS011;7137;51.436;6.544;2023-11-18T17:45:56;9.37;;;7.30;;
14116;SDS011;7137;51.436;6.544;2023-11-18T17:48:59;7.90;;;6.17;;
14116;SDS011;7137;51.436;6.544;2023-11-18T17:52:02;8.57;;;6.87;;
14116;SDS011;7137;51.436;6.544;2023-11-18T17:55:04;9.97;;;8.43;;
14116;SDS011;7137;51.436;6.544;2023-11-18T17:58:08;8.70;;;7.10;;
14116;SDS011;7137;51.436;6.544;2023-11-18T18:01:10;10.57;;;7.67;;
14116;SDS011;7137;51.436;6.544;2023-11-18T18:04:13;9.63;;;7.87;;
14116;SDS011;7137;51.436;6.544;2023-11-18T18:07:14;11.03;;;8.83;;
14116;SDS011;7137;51.436;6.544;2023-11-18T18:10:16;9.40;;;7.20;;
14116;SDS011;7137;51.436;6.544;2023-11-18T18:13:18;9.20;;;7.50;;
14116;SDS011;7137;51.436;6.544;2023-11-18T18:16:19;10.17;;;7.57;;
14116;SDS011;7137;51.436;6.544;2023-11-18T18:19:22;10.10;;;7.90;;
14116;SDS011;7137;51.436;6.544;2023-11-18T18:22:25;23.13;;;19.73;;
14116;SDS011;7137;51.436;6.544;2023-11-18T18:25:27;10.80;;;9.00;;